createdAt,value
2023-05-14T00:01:58.528Z,43.12
2023-05-14T00:05:59.940Z,44.13
2023-05-14T00:10:01.500Z,43.03
2023-05-14T00:14:02.969Z,44.39
2023-05-14T00:18:04.507Z,43.59
2023-05-14T00:22:05.883Z,44.47
2023-05-14T00:26:07.209Z,45.01
2023-05-14T00:30:08.914Z,44.00
2023-05-14T00:34:10.281Z,45.93
2023-05-14T00:38:16.766Z,46.31
2023-05-14T00:42:18.082Z,46.51
2023-05-14T00:46:19.800Z,45.56
2023-05-14T00:50:21.593Z,44.50
2023-05-14T00:54:23.156Z,44.29
2023-05-14T00:58:25.667Z,44.04
2023-05-14T01:02:27.118Z,43.96
2023-05-14T01:06:31.319Z,43.93
2023-05-14T01:10:42.200Z,44.35
2023-05-14T01:15:05.440Z,44.29
2023-05-14T01:19:18.655Z,44.30
2023-05-14T01:23:20.160Z,44.73
2023-05-14T01:27:52.875Z,44.63
2023-05-14T01:31:57.337Z,44.75
2023-05-14T01:35:58.881Z,45.15
2023-05-14T01:40:01.090Z,45.50
2023-05-14T01:44:02.437Z,45.88
2023-05-14T01:48:05.262Z,45.69
2023-05-14T01:52:08.405Z,45.52
2023-05-14T01:56:09.740Z,46.04
2023-05-14T02:00:11.528Z,46.04
2023-05-14T02:04:12.799Z,46.40
2023-05-14T02:08:14.193Z,46.39
2023-05-14T02:12:15.645Z,46.15
2023-05-14T02:16:16.997Z,46.15
2023-05-14T02:20:18.404Z,46.14
2023-05-14T02:24:19.753Z,46.04
2023-05-14T02:28:21.204Z,45.82
2023-05-14T02:32:22.689Z,46.49
2023-05-14T02:36:24.071Z,45.90
2023-05-14T02:40:25.763Z,45.54
2023-05-14T02:44:27.270Z,46.67
2023-05-14T02:48:28.658Z,46.13
2023-05-14T02:52:30.081Z,46.33
2023-05-14T02:56:31.449Z,45.61
2023-05-14T03:00:32.788Z,46.10
2023-05-14T03:04:34.476Z,45.89
2023-05-14T03:08:35.997Z,45.83
2023-05-14T03:12:37.376Z,46.81
2023-05-14T03:16:40.100Z,46.10
2023-05-14T03:20:42.203Z,45.72
2023-05-14T03:24:43.594Z,45.59
2023-05-14T03:28:44.901Z,45.74
2023-05-14T03:32:46.472Z,46.17
2023-05-14T03:36:47.877Z,46.08
2023-05-14T03:40:49.153Z,46.23
2023-05-14T03:44:50.496Z,45.89
2023-05-14T03:48:51.821Z,45.80
2023-05-14T03:52:53.525Z,46.33
2023-05-14T03:56:54.792Z,46.24
2023-05-14T04:00:56.197Z,45.96
2023-05-14T04:04:57.602Z,45.43
2023-05-14T04:08:58.977Z,45.96
2023-05-14T04:13:00.401Z,45.82
2023-05-14T04:17:01.706Z,45.70
2023-05-14T04:21:03.080Z,45.35
2023-05-14T04:25:04.725Z,45.17
2023-05-14T04:29:06.124Z,45.35
2023-05-14T04:33:07.482Z,44.92
2023-05-14T04:37:09.020Z,45.47
2023-05-14T04:41:10.461Z,45.21
2023-05-14T04:45:13.475Z,44.79
2023-05-14T04:49:14.862Z,44.89
2023-05-14T04:53:16.239Z,44.96
2023-05-14T04:57:17.672Z,44.36
2023-05-14T05:01:19.077Z,44.34
2023-05-14T05:05:20.669Z,44.06
2023-05-14T05:09:22.080Z,43.94
2023-05-14T05:13:23.390Z,43.25
2023-05-14T05:17:25.410Z,44.07
2023-05-14T05:21:26.873Z,44.32
2023-05-14T05:25:28.220Z,44.86
2023-05-14T05:29:29.634Z,44.77
2023-05-14T05:33:32.113Z,42.82
2023-05-14T05:37:33.490Z,42.27
2023-05-14T05:41:34.786Z,40.67
2023-05-14T05:45:36.198Z,39.98
2023-05-14T05:49:37.651Z,38.74
2023-05-14T05:53:39.007Z,36.62
2023-05-14T05:57:40.412Z,37.60
2023-05-14T06:01:43.451Z,36.56
2023-05-14T06:05:45.035Z,34.67
2023-05-14T06:09:46.531Z,34.65
2023-05-14T06:13:47.868Z,33.86
2023-05-14T06:17:49.272Z,33.65
2023-05-14T06:21:50.578Z,33.46
2023-05-14T06:25:52.540Z,33.64
2023-05-14T06:29:53.849Z,33.52
2023-05-14T06:33:55.226Z,33.42
2023-05-14T06:37:56.569Z,32.65
2023-05-14T06:41:57.841Z,30.76
2023-05-14T06:45:59.152Z,31.05
2023-05-14T06:51:09.172Z,30.00
2023-05-14T06:55:10.600Z,29.12
2023-05-14T06:59:12.129Z,30.28
2023-05-14T07:03:13.573Z,29.25
2023-05-14T07:07:18.184Z,27.60
2023-05-14T07:11:19.531Z,27.59
2023-05-14T07:15:21.172Z,26.63
2023-05-14T07:19:22.581Z,26.24
2023-05-14T07:23:23.945Z,24.26
2023-05-14T07:27:25.542Z,24.58
2023-05-14T07:31:27.060Z,24.17
2023-05-14T07:35:28.528Z,23.68
2023-05-14T07:39:29.841Z,22.77
2023-05-14T07:43:31.576Z,23.32
2023-05-14T07:47:33.298Z,22.63
2023-05-14T07:51:34.764Z,21.90
2023-05-14T07:55:36.647Z,21.52
2023-05-14T07:59:38.030Z,20.66
2023-05-14T08:03:40.013Z,20.89
2023-05-14T08:07:41.468Z,21.64
2023-05-14T08:11:42.833Z,21.69
2023-05-14T08:15:44.230Z,21.36
2023-05-14T08:19:45.619Z,19.87
2023-05-14T08:23:46.941Z,19.47
2023-05-14T08:27:48.242Z,19.13
2023-05-14T08:31:49.845Z,19.56
2023-05-14T08:35:54.540Z,18.80
2023-05-14T08:39:56.171Z,19.14
2023-05-14T08:44:12.223Z,18.44
2023-05-14T08:48:16.765Z,18.37
2023-05-14T08:52:20.148Z,17.77
2023-05-14T08:56:22.698Z,18.36
2023-05-14T09:00:24.980Z,18.52
2023-05-14T09:04:27.913Z,16.89
2023-05-14T09:08:29.456Z,21.04
2023-05-14T09:12:31.259Z,18.81
2023-05-14T09:16:32.889Z,18.03
2023-05-14T09:20:34.454Z,17.19
2023-05-14T09:24:36.092Z,16.13
2023-05-14T09:28:43.936Z,16.85
2023-05-14T09:32:46.090Z,16.70
2023-05-14T09:36:47.471Z,15.54
2023-05-14T09:40:48.755Z,14.96
2023-05-14T09:44:53.498Z,15.13
2023-05-14T09:48:55.959Z,15.21
2023-05-14T09:52:58.808Z,15.31
2023-05-14T09:57:00.349Z,15.82
2023-05-14T10:01:02.608Z,14.69
2023-05-14T10:05:06.390Z,13.99
2023-05-14T10:09:13.602Z,14.38
2023-05-14T10:13:22.263Z,16.17
2023-05-14T10:17:30.658Z,14.84
2023-05-14T10:21:36.452Z,15.47
2023-05-14T10:25:38.176Z,16.03
2023-05-14T10:29:39.564Z,17.58
2023-05-14T10:33:50.191Z,15.76
2023-05-14T10:37:51.808Z,16.09
2023-05-14T10:41:53.424Z,16.22
2023-05-14T10:45:55.782Z,16.92
2023-05-14T10:50:03.383Z,15.44
2023-05-14T10:54:08.204Z,14.43
2023-05-14T10:58:10.908Z,16.52
2023-05-14T11:02:32.955Z,14.95
2023-05-14T11:06:35.637Z,15.71
2023-05-14T11:10:38.850Z,16.26
2023-05-14T11:14:41.439Z,16.56
2023-05-14T11:18:42.781Z,16.19
2023-05-14T11:22:45.660Z,16.11
2023-05-14T11:26:47.088Z,18.96
2023-05-14T11:30:49.674Z,18.43
2023-05-14T11:34:51.372Z,18.95
2023-05-14T11:38:52.965Z,19.87
2023-05-14T11:42:54.495Z,21.82
2023-05-14T11:46:57.088Z,20.67
2023-05-14T11:50:58.449Z,20.81
2023-05-14T11:54:59.782Z,20.02
2023-05-14T11:59:01.199Z,20.44
2023-05-14T12:03:02.720Z,20.54
2023-05-14T12:07:12.551Z,19.13
2023-05-14T12:11:13.914Z,20.14
2023-05-14T12:15:16.885Z,19.25
2023-05-14T12:19:21.230Z,19.14
2023-05-14T12:23:33.198Z,19.77
2023-05-14T12:27:37.279Z,18.58
2023-05-14T12:31:45.678Z,18.24
2023-05-14T12:35:47.119Z,19.86
2023-05-14T12:39:48.540Z,18.86
2023-05-14T12:43:49.903Z,18.52
2023-05-14T12:47:51.277Z,16.68
2023-05-14T12:52:03.186Z,17.23
2023-05-14T12:56:14.577Z,17.45
2023-05-14T13:00:16.210Z,16.20
2023-05-14T13:04:17.754Z,17.74
2023-05-14T13:08:21.423Z,19.18
2023-05-14T13:12:23.696Z,17.61
2023-05-14T13:16:27.838Z,17.23
2023-05-14T13:20:30.983Z,16.16
2023-05-14T13:24:32.293Z,16.24
2023-05-14T13:28:33.867Z,16.18
2023-05-14T13:32:35.481Z,15.47
2023-05-14T13:36:39.561Z,15.25
2023-05-14T13:40:40.914Z,15.32
2023-05-14T13:44:42.238Z,15.72
2023-05-14T13:48:43.641Z,16.13
2023-05-14T13:52:44.975Z,16.02
2023-05-14T13:56:46.301Z,16.59
2023-05-14T14:00:47.596Z,15.73
2023-05-14T14:04:49.427Z,15.73
2023-05-14T14:08:50.935Z,16.97
2023-05-14T14:12:52.669Z,15.81
2023-05-14T14:16:54.045Z,16.23
2023-05-14T14:20:55.488Z,15.77
2023-05-14T14:24:56.851Z,15.90
2023-05-14T14:28:58.619Z,15.50
2023-05-14T14:33:01.260Z,19.31
2023-05-14T14:37:02.857Z,18.88
2023-05-14T14:41:04.342Z,19.70
2023-05-14T14:45:06.479Z,19.10
2023-05-14T14:49:07.852Z,17.88
2023-05-14T14:53:09.450Z,16.68
2023-05-14T14:57:10.783Z,17.14
2023-05-14T15:01:12.219Z,16.65
2023-05-14T15:05:13.582Z,18.13
2023-05-14T15:09:14.942Z,16.60
2023-05-14T15:13:16.290Z,16.70
2023-05-14T15:17:17.687Z,18.25
2023-05-14T15:21:19.106Z,18.79
2023-05-14T15:25:21.205Z,20.15
2023-05-14T15:29:22.699Z,18.45
2023-05-14T15:33:24.021Z,18.13
2023-05-14T15:37:26.645Z,17.56
2023-05-14T15:41:28.744Z,19.19
2023-05-14T15:45:30.250Z,17.25
2023-05-14T15:49:31.641Z,19.16
2023-05-14T15:53:33.320Z,19.67
2023-05-14T15:57:34.943Z,18.79
2023-05-14T16:01:36.324Z,19.58
2023-05-14T16:05:37.793Z,21.64
2023-05-14T16:09:39.414Z,19.22
2023-05-14T16:13:41.598Z,19.51
2023-05-14T16:17:43.130Z,21.06
2023-05-14T16:21:44.796Z,19.58
2023-05-14T16:25:46.294Z,19.08
2023-05-14T16:29:47.981Z,20.14
2023-05-14T16:33:49.362Z,21.65
2023-05-14T16:37:50.845Z,21.99
2023-05-14T16:41:52.197Z,20.13
2023-05-14T16:45:53.624Z,19.17
2023-05-14T16:49:55.213Z,19.25
2023-05-14T16:53:56.637Z,18.91
2023-05-14T16:57:57.979Z,19.08
2023-05-14T17:01:59.449Z,20.38
2023-05-14T17:06:01.010Z,20.22
2023-05-14T17:10:02.429Z,20.58
2023-05-14T17:14:03.984Z,21.54
2023-05-14T17:18:05.584Z,20.42
2023-05-14T17:22:07.226Z,19.56
2023-05-14T17:26:08.788Z,20.98
2023-05-14T17:30:10.668Z,20.09
2023-05-14T17:34:11.981Z,21.13
2023-05-14T17:38:13.650Z,21.50
2023-05-14T17:42:15.158Z,21.18
2023-05-14T17:46:16.621Z,21.30
2023-05-14T17:50:18.849Z,21.21
2023-05-14T17:54:20.354Z,21.42
2023-05-14T17:58:21.717Z,21.32
2023-05-14T18:02:23.093Z,22.40
2023-05-14T18:06:24.634Z,22.14
2023-05-14T18:10:26.416Z,23.43
2023-05-14T18:14:27.730Z,23.56
2023-05-14T18:18:29.187Z,23.44
2023-05-14T18:22:30.612Z,25.20
2023-05-14T18:26:34.192Z,25.85
2023-05-14T18:30:35.887Z,24.89
2023-05-14T18:34:37.236Z,25.99
2023-05-14T18:38:38.839Z,24.88
2023-05-14T18:42:48.500Z,23.91
2023-05-14T18:46:50.231Z,25.51
2023-05-14T18:50:51.848Z,25.14
2023-05-14T18:54:56.909Z,28.05
2023-05-14T18:58:58.225Z,27.03
2023-05-14T19:02:59.614Z,26.51
2023-05-14T19:07:01.042Z,26.80
2023-05-14T19:11:02.416Z,26.66
2023-05-14T19:15:04.497Z,26.75
2023-05-14T19:19:05.867Z,27.01
2023-05-14T19:23:07.435Z,28.02
2023-05-14T19:27:09.094Z,26.89
2023-05-14T19:31:10.926Z,28.68
2023-05-14T19:35:12.421Z,27.81
2023-05-14T19:39:13.808Z,28.65
2023-05-14T19:43:15.183Z,27.00
2023-05-14T19:47:18.242Z,28.24
2023-05-14T19:51:19.737Z,28.80
2023-05-14T19:55:21.081Z,27.13
2023-05-14T19:59:22.410Z,26.57
2023-05-14T20:03:27.000Z,28.98
2023-05-14T20:07:29.383Z,26.29
2023-05-14T20:11:30.793Z,27.22
2023-05-14T20:15:32.195Z,26.52
2023-05-14T20:19:33.751Z,26.95
2023-05-14T20:23:35.163Z,27.25
2023-05-14T20:27:36.689Z,27.95
2023-05-14T20:31:38.023Z,28.99
2023-05-14T20:35:41.425Z,28.57
2023-05-14T20:39:44.118Z,29.09
2023-05-14T20:43:45.434Z,28.91
2023-05-14T20:47:46.805Z,28.43
2023-05-14T20:51:48.247Z,28.60
2023-05-14T20:55:49.679Z,28.96
2023-05-14T20:59:51.028Z,28.75
2023-05-14T21:03:52.476Z,28.57
2023-05-14T21:07:53.963Z,28.79
2023-05-14T21:11:55.413Z,28.95
2023-05-14T21:15:56.868Z,28.70
2023-05-14T21:19:58.294Z,28.90
2023-05-14T21:23:59.631Z,28.79
2023-05-14T21:28:00.887Z,29.33
2023-05-14T21:32:02.321Z,29.38
2023-05-14T21:36:04.097Z,29.63
2023-05-14T21:40:09.219Z,29.24
2023-05-14T21:44:10.483Z,29.18
2023-05-14T21:48:11.964Z,29.21
2023-05-14T21:52:13.454Z,29.85
2023-05-14T21:56:15.310Z,29.62
2023-05-14T22:00:23.021Z,29.98
2023-05-14T22:04:24.301Z,29.71
2023-05-14T22:08:27.101Z,30.13
2023-05-14T22:12:28.567Z,30.21
2023-05-14T22:16:29.934Z,30.52
2023-05-14T22:20:31.386Z,30.53
2023-05-14T22:24:32.679Z,30.61
2023-05-14T22:28:34.061Z,30.48
2023-05-14T22:32:35.532Z,31.04
2023-05-14T22:36:37.064Z,31.40
2023-05-14T22:40:38.421Z,31.47
2023-05-14T22:44:39.775Z,32.20
2023-05-14T22:48:41.146Z,32.22
2023-05-14T22:52:42.486Z,33.09
2023-05-14T22:56:43.839Z,33.08
2023-05-14T23:00:45.239Z,32.85
2023-05-14T23:04:46.661Z,32.67
2023-05-14T23:08:48.184Z,33.09
2023-05-14T23:12:49.511Z,33.29
2023-05-14T23:16:50.953Z,33.79
2023-05-14T23:20:52.347Z,33.86
2023-05-14T23:24:53.721Z,33.83
2023-05-14T23:28:55.183Z,34.36
2023-05-14T23:32:56.620Z,34.45
2023-05-14T23:36:57.968Z,34.72
2023-05-14T23:40:59.324Z,34.76
2023-05-14T23:45:00.649Z,35.55
2023-05-14T23:49:02.028Z,35.79
2023-05-14T23:53:03.824Z,36.13
2023-05-14T23:57:05.480Z,36.81
